Time;durP1;ratioP1;P1;durP2;ratioP2;P2;SDS_P1;SDS_P2;PMS_P1;PMS_P2;Temp;Humidity;BMP_temperature;BMP_pressure;BME280_temperature;BME280_humidity;BME280_pressure;Samples;Min_cycle;Max_cycle;Signal;HPM_P1;HPM_P2
2021/09/05 00:02:12;;;;;;;12.38;6.95;;;;;;;12.93;100.00;96788.88;5033679;28;20636;-64
2021/09/05 00:04:37;;;;;;;13.30;6.88;;;;;;;13.09;100.00;96785.84;5051997;28;20032;-65
2021/09/05 00:07:03;;;;;;;12.10;7.07;;;;;;;13.12;100.00;96785.84;5058771;28;20393;-64
2021/09/05 00:09:28;;;;;;;11.25;7.53;;;;;;;13.16;100.00;96788.63;5052632;28;20041;-64
2021/09/05 00:11:54;;;;;;;12.57;8.20;;;;;;;12.94;100.00;96782.19;5059121;28;20033;-65
2021/09/05 00:14:19;;;;;;;12.40;8.75;;;;;;;12.23;100.00;96785.81;5051815;28;20050;-65
2021/09/05 00:16:45;;;;;;;13.18;7.93;;;;;;;11.86;100.00;96786.53;5059045;28;20037;-66
2021/09/05 00:19:10;;;;;;;15.30;8.27;;;;;;;11.80;100.00;96791.53;5042977;28;20102;-65
2021/09/05 00:21:36;;;;;;;13.98;7.88;;;;;;;11.78;100.00;96793.09;5061373;28;20193;-66
2021/09/05 00:24:01;;;;;;;13.35;8.73;;;;;;;11.72;100.00;96791.81;5060099;28;20032;-65
2021/09/05 00:26:31;;;;;;;13.23;7.93;;;;;;;11.89;100.00;96790.50;5043413;28;20655;-66
2021/09/05 00:28:56;;;;;;;11.25;7.50;;;;;;;12.22;100.00;96784.22;5046323;28;20029;-66
2021/09/05 00:31:21;;;;;;;18.33;7.68;;;;;;;12.08;100.00;96795.03;5051967;28;20060;-66
2021/09/05 00:33:47;;;;;;;14.73;8.35;;;;;;;11.85;100.00;96783.00;5061929;28;20059;-66
2021/09/05 00:36:12;;;;;;;12.25;7.97;;;;;;;11.78;100.00;96793.88;5054523;28;20046;-65
2021/09/05 00:38:38;;;;;;;12.48;7.60;;;;;;;11.76;100.00;96795.44;5062999;28;20043;-64
2021/09/05 00:41:03;;;;;;;10.63;7.15;;;;;;;11.83;100.00;96787.28;5049880;28;20068;-63
2021/09/05 00:43:29;;;;;;;12.77;7.18;;;;;;;11.86;100.00;96790.03;5059596;28;20037;-67
2021/09/05 00:45:54;;;;;;;14.98;7.72;;;;;;;12.14;100.00;96791.59;5062497;28;20075;-65
2021/09/05 00:48:19;;;;;;;15.07;8.05;;;;;;;12.16;100.00;96783.78;5055617;28;20052;-65
2021/09/05 00:50:45;;;;;;;13.48;7.80;;;;;;;12.32;100.00;96788.28;5061585;28;20677;-64
2021/09/05 00:53:10;;;;;;;12.10;7.45;;;;;;;12.34;100.00;96794.19;5054009;28;20037;-64
2021/09/05 00:55:38;;;;;;;11.77;7.47;;;;;;;12.37;100.00;96793.41;5061287;28;20573;-65
2021/09/05 00:58:07;;;;;;;10.15;6.82;;;;;;;12.45;100.00;96797.03;5058998;28;20087;-62
2021/09/05 01:00:33;;;;;;;12.18;7.95;;;;;;;12.52;100.00;96795.16;5050777;28;20064;-64
2021/09/05 01:02:59;;;;;;;11.38;6.45;;;;;;;12.54;100.00;96795.56;5053091;28;20064;-64
2021/09/05 01:05:25;;;;;;;11.60;7.18;;;;;;;12.42;100.00;96802.13;5054261;28;20033;-65
2021/09/05 01:07:50;;;;;;;11.68;6.85;;;;;;;12.46;100.00;96796.66;5060957;28;20362;-64
2021/09/05 01:10:16;;;;;;;13.30;7.40;;;;;;;12.43;100.00;96797.41;5054642;28;20041;-65
2021/09/05 01:12:41;;;;;;;11.07;6.68;;;;;;;12.37;100.00;96798.91;5059974;28;20037;-65
2021/09/05 01:15:07;;;;;;;15.88;6.85;;;;;;;12.30;100.00;96807.88;5056057;28;20056;-65
2021/09/05 01:17:37;;;;;;;11.45;7.07;;;;;;;12.20;100.00;96812.06;5061084;28;20048;-65
2021/09/05 01:20:07;;;;;;;10.60;7.22;;;;;;;12.15;100.00;96812.38;5059827;28;20048;-62
2021/09/05 01:22:34;;;;;;;10.48;6.93;;;;;;;12.08;100.00;96815.03;5059098;28;20521;-64
2021/09/05 01:24:59;;;;;;;12.18;6.90;;;;;;;12.07;100.00;96813.47;5060193;28;20049;-65
2021/09/05 01:27:25;;;;;;;11.45;6.20;;;;;;;12.15;100.00;96817.09;5052855;28;20052;-65
2021/09/05 01:29:50;;;;;;;11.07;7.50;;;;;;;12.14;100.00;96813.56;5059554;28;20102;-64
2021/09/05 01:32:15;;;;;;;9.95;6.18;;;;;;;12.17;100.00;96817.50;5051975;28;20397;-65
2021/09/05 01:34:41;;;;;;;12.35;6.60;;;;;;;12.24;100.00;96814.84;5059273;28;20389;-65
2021/09/05 01:37:06;;;;;;;11.65;6.82;;;;;;;12.32;100.00;96819.28;5052797;28;20033;-63
2021/09/05 01:39:32;;;;;;;9.50;5.93;;;;;;;12.34;100.00;96818.91;5060622;28;20105;-66
2021/09/05 01:41:58;;;;;;;9.52;6.50;;;;;;;12.32;99.00;96823.97;5051629;28;20043;-67
2021/09/05 01:44:24;;;;;;;10.20;6.72;;;;;;;12.35;99.14;96823.22;5046298;28;20037;-66
2021/09/05 01:46:50;;;;;;;9.05;6.32;;;;;;;12.38;99.44;96819.72;5060527;28;20044;-66
2021/09/05 01:49:16;;;;;;;11.65;6.78;;;;;;;12.44;98.80;96820.94;5057809;28;20040;-65
2021/09/05 01:51:42;;;;;;;11.85;6.70;;;;;;;12.45;98.87;96824.50;5060723;28;20045;-65
2021/09/05 01:54:07;;;;;;;12.38;7.72;;;;;;;12.40;98.74;96825.63;5043182;28;20032;-65
2021/09/05 01:56:34;;;;;;;9.95;6.70;;;;;;;12.36;98.75;96830.28;5051931;28;20094;-67
2021/09/05 01:59:00;;;;;;;10.68;6.55;;;;;;;12.33;99.14;96831.81;5056781;28;20041;-66
2021/09/05 02:01:27;;;;;;;11.38;6.78;;;;;;;12.22;98.05;96828.16;5054260;28;20055;-65
2021/09/05 02:03:53;;;;;;;12.60;6.28;;;;;;;12.11;98.90;96832.75;5054959;28;20131;-66
2021/09/05 02:06:20;;;;;;;12.57;6.97;;;;;;;12.05;99.38;96830.31;5055633;28;20037;-65
2021/09/05 02:08:45;;;;;;;17.35;6.75;;;;;;;11.99;99.83;96837.31;5060880;28;20032;-65
2021/09/05 02:11:11;;;;;;;10.57;6.38;;;;;;;11.98;99.91;96841.22;5055008;28;20405;-64
2021/09/05 02:13:37;;;;;;;11.07;6.78;;;;;;;11.91;100.00;96834.84;5057678;28;20143;-65
2021/09/05 02:16:03;;;;;;;10.88;6.72;;;;;;;11.84;100.00;96843.72;5056742;28;20448;-65
2021/09/05 02:18:28;;;;;;;13.43;6.65;;;;;;;11.71;100.00;96843.16;5047314;28;20052;-66
2021/09/05 02:20:55;;;;;;;10.07;6.88;;;;;;;11.83;100.00;96850.41;5041733;28;20120;-66
2021/09/05 02:23:20;;;;;;;12.32;6.15;;;;;;;11.82;100.00;96844.09;5035566;28;20048;-66
2021/09/05 02:25:46;;;;;;;9.98;6.70;;;;;;;11.72;100.00;96841.22;5048544;28;20037;-66
2021/09/05 02:28:11;;;;;;;10.70;6.78;;;;;;;11.61;100.00;96850.09;5042471;28;20036;-65
2021/09/05 02:30:37;;;;;;;11.18;7.07;;;;;;;11.57;100.00;96851.19;5066945;28;20044;-65
2021/09/05 02:33:03;;;;;;;10.18;6.50;;;;;;;11.48;100.00;96845.97;5053967;28;20822;-64
2021/09/05 02:35:29;;;;;;;10.82;6.63;;;;;;;11.56;100.00;96844.13;5031796;28;20052;-66
2021/09/05 02:37:54;;;;;;;11.32;6.55;;;;;;;11.54;100.00;96838.22;5059870;28;20097;-66
2021/09/05 02:40:20;;;;;;;10.73;6.00;;;;;;;11.51;100.00;96844.44;5035570;28;20033;-64
2021/09/05 02:42:45;;;;;;;10.43;6.13;;;;;;;11.49;100.00;96847.56;5053065;28;20109;-66
2021/09/05 02:45:11;;;;;;;9.63;6.32;;;;;;;11.60;100.00;96844.97;5051698;28;20033;-66
2021/09/05 02:47:37;;;;;;;10.43;6.30;;;;;;;11.71;100.00;96847.88;5058002;28;20486;-66
2021/09/05 02:50:03;;;;;;;9.48;6.60;;;;;;;11.64;100.00;96848.56;5057097;28;20560;-63
2021/09/05 02:52:29;;;;;;;13.52;6.47;;;;;;;11.60;100.00;96847.72;5056076;28;20052;-65
2021/09/05 02:54:54;;;;;;;14.88;6.97;;;;;;;11.57;100.00;96842.97;5056820;28;20028;-65
2021/09/05 02:57:20;;;;;;;11.98;6.20;;;;;;;11.44;100.00;96840.44;5044278;28;20041;-66
2021/09/05 02:59:45;;;;;;;11.48;6.72;;;;;;;11.31;100.00;96841.81;5054874;28;20043;-66
2021/09/05 03:02:10;;;;;;;9.63;6.45;;;;;;;11.27;100.00;96841.75;5051738;28;20691;-66
2021/09/05 03:04:36;;;;;;;11.15;7.25;;;;;;;11.43;100.00;96844.34;5057718;28;20611;-66
2021/09/05 03:07:02;;;;;;;12.02;7.18;;;;;;;11.50;100.00;96843.63;5058466;28;20040;-65
2021/09/05 03:09:27;;;;;;;11.27;6.53;;;;;;;11.50;100.00;96842.84;5054881;28;20036;-65
2021/09/05 03:11:53;;;;;;;11.20;6.85;;;;;;;11.52;100.00;96846.03;5057670;28;20143;-64
2021/09/05 03:14:19;;;;;;;9.65;5.82;;;;;;;11.47;100.00;96850.66;5051463;28;20120;-65
2021/09/05 03:16:44;;;;;;;16.15;7.15;;;;;;;11.50;100.00;96846.38;5046791;28;20036;-62
2021/09/05 03:19:10;;;;;;;10.75;6.05;;;;;;;11.53;100.00;96850.34;5040087;28;20045;-63
2021/09/05 03:21:37;;;;;;;12.23;6.70;;;;;;;11.58;100.00;96852.78;5049029;28;20097;-65
2021/09/05 03:24:03;;;;;;;12.00;6.60;;;;;;;11.58;100.00;96845.34;5040774;28;20051;-62
2021/09/05 03:26:28;;;;;;;10.30;6.88;;;;;;;11.51;100.00;96849.94;5037139;28;20060;-65
2021/09/05 03:28:55;;;;;;;12.73;6.55;;;;;;;11.37;100.00;96854.03;5046967;28;20037;-64
2021/09/05 03:31:20;;;;;;;9.40;6.10;;;;;;;11.32;100.00;96854.34;5037795;28;20048;-63
2021/09/05 03:33:46;;;;;;;10.07;6.00;;;;;;;11.29;100.00;96855.88;5040364;28;20037;-64
2021/09/05 03:36:12;;;;;;;10.32;6.63;;;;;;;11.37;100.00;96855.97;5031860;28;20037;-65
2021/09/05 03:38:37;;;;;;;9.75;6.25;;;;;;;11.28;100.00;96853.50;5058763;28;20135;-65
2021/09/05 03:41:03;;;;;;;9.98;6.80;;;;;;;10.82;100.00;96861.72;5056818;28;20037;-61
2021/09/05 03:43:28;;;;;;;14.80;7.68;;;;;;;10.88;100.00;96865.75;5032544;28;20045;-65
2021/09/05 03:45:54;;;;;;;11.23;6.60;;;;;;;11.03;100.00;96866.78;5037454;28;20172;-64
2021/09/05 03:48:19;;;;;;;11.07;7.13;;;;;;;11.24;100.00;96860.88;5042217;28;20089;-66
2021/09/05 03:50:44;;;;;;;11.15;6.72;;;;;;;11.33;100.00;96864.16;5047434;28;20187;-65
2021/09/05 03:53:10;;;;;;;12.25;6.43;;;;;;;11.17;100.00;96864.28;5041496;28;20040;-64
2021/09/05 03:55:35;;;;;;;12.00;6.32;;;;;;;11.26;100.00;96858.56;5035465;28;20497;-64
2021/09/05 03:58:02;;;;;;;11.27;7.47;;;;;;;11.31;100.00;96863.72;5048233;28;20444;-65
2021/09/05 04:00:28;;;;;;;11.38;7.35;;;;;;;11.36;100.00;96866.19;5038875;28;20132;-65
2021/09/05 04:02:54;;;;;;;15.18;6.38;;;;;;;11.39;100.00;96865.41;5051158;28;20063;-66
2021/09/05 04:05:19;;;;;;;11.68;6.95;;;;;;;11.19;100.00;96878.41;5033047;28;20467;-65
2021/09/05 04:08:11;;;;;;;8.50;5.80;;;;;;;11.00;100.00;96873.81;5062514;28;20032;-66
2021/09/05 04:10:37;;;;;;;9.18;6.40;;;;;;;10.90;100.00;96875.19;5049342;28;20233;-65
2021/09/05 04:13:04;;;;;;;9.13;6.43;;;;;;;10.89;100.00;96872.81;5045839;28;20044;-63
2021/09/05 04:15:30;;;;;;;10.82;6.88;;;;;;;10.94;100.00;96879.94;5026337;28;20037;-64
2021/09/05 04:17:56;;;;;;;12.80;6.65;;;;;;;10.98;100.00;96873.34;5043396;28;20505;-64
2021/09/05 04:20:22;;;;;;;10.07;6.63;;;;;;;11.07;100.00;96876.66;5057323;28;21051;-65
2021/09/05 04:22:48;;;;;;;10.88;6.75;;;;;;;11.17;100.00;96879.94;5049970;28;20047;-64
2021/09/05 04:25:14;;;;;;;13.00;6.63;;;;;;;11.18;100.00;96879.59;5043533;28;20040;-65
2021/09/05 04:27:40;;;;;;;11.30;7.03;;;;;;;11.20;100.00;96885.50;5050603;28;20033;-65
2021/09/05 04:30:07;;;;;;;10.32;6.95;;;;;;;11.18;100.00;96881.53;5026244;28;20040;-64
2021/09/05 04:32:34;;;;;;;13.05;7.18;;;;;;;11.18;100.00;96884.25;5061010;28;20105;-62
2021/09/05 04:35:00;;;;;;;15.88;7.20;;;;;;;11.20;100.00;96887.41;5056988;28;20106;-67
2021/09/05 04:37:26;;;;;;;11.32;6.60;;;;;;;11.23;100.00;96886.69;5046286;28;20601;-65
2021/09/05 04:39:52;;;;;;;11.55;6.68;;;;;;;11.28;100.00;96889.13;5053719;28;20043;-65
2021/09/05 04:42:18;;;;;;;14.23;6.28;;;;;;;11.19;100.00;96896.81;5047018;28;20136;-67
2021/09/05 04:44:44;;;;;;;9.27;5.97;;;;;;;11.20;100.00;96892.91;5045267;28;20123;-66
2021/09/05 04:47:09;;;;;;;9.30;6.22;;;;;;;11.15;100.00;96893.22;5045087;28;20206;-65
2021/09/05 04:49:35;;;;;;;19.55;6.75;;;;;;;10.85;100.00;96896.63;5053280;28;20447;-65
2021/09/05 04:52:01;;;;;;;12.05;6.72;;;;;;;10.61;100.00;96900.47;5053246;28;20051;-66
2021/09/05 04:54:27;;;;;;;12.30;7.25;;;;;;;10.53;100.00;96896.78;5053848;28;20036;-64
2021/09/05 04:56:53;;;;;;;13.93;6.68;;;;;;;10.62;100.00;96900.09;5060850;28;20515;-63
2021/09/05 04:59:18;;;;;;;14.35;7.47;;;;;;;10.49;100.00;96902.19;5051796;28;20045;-66
2021/09/05 05:01:44;;;;;;;13.38;7.07;;;;;;;10.40;100.00;96901.63;5048996;28;20049;-65
2021/09/05 05:04:09;;;;;;;11.73;7.15;;;;;;;10.36;100.00;96908.19;5036967;28;20449;-65
2021/09/05 05:06:35;;;;;;;18.33;7.05;;;;;;;10.41;100.00;96913.38;5032831;28;20052;-66
2021/09/05 05:09:00;;;;;;;11.23;6.70;;;;;;;10.54;100.00;96911.28;5021188;28;20056;-65
2021/09/05 05:11:26;;;;;;;10.77;6.93;;;;;;;10.78;100.00;96924.66;5014406;28;20061;-67
2021/09/05 05:13:52;;;;;;;16.17;7.38;;;;;;;10.83;100.00;96926.31;5031256;28;20045;-65
2021/09/05 05:16:19;;;;;;;12.18;6.88;;;;;;;10.95;100.00;96920.69;5047253;28;20040;-65
2021/09/05 05:18:44;;;;;;;11.18;6.57;;;;;;;11.42;100.00;96922.28;5048837;28;20045;-66
2021/09/05 05:21:10;;;;;;;11.80;6.38;;;;;;;12.30;100.00;96914.16;5042528;28;20099;-63
2021/09/05 05:23:36;;;;;;;9.77;5.97;;;;;;;13.45;93.86;96912.69;5055814;28;20049;-64
2021/09/05 05:26:02;;;;;;;14.27;5.88;;;;;;;14.56;85.61;96918.09;5040526;28;20040;-64
2021/09/05 05:28:27;;;;;;;11.23;5.88;;;;;;;15.33;79.84;96915.19;5052596;28;20684;-67
2021/09/05 05:30:52;;;;;;;8.60;4.82;;;;;;;15.95;75.78;96919.53;5053203;28;20545;-64
2021/09/05 05:33:18;;;;;;;9.20;5.68;;;;;;;16.90;70.69;96913.34;5034524;28;20094;-64
2021/09/05 05:35:44;;;;;;;7.85;4.75;;;;;;;17.70;67.15;96914.38;5052595;28;20212;-63
2021/09/05 05:38:09;;;;;;;8.48;5.07;;;;;;;18.22;64.20;96911.56;5028277;28;20044;-61
2021/09/05 05:40:35;;;;;;;8.35;5.57;;;;;;;18.51;62.59;96927.84;5051558;28;20501;-66
2021/09/05 05:43:02;;;;;;;9.70;4.93;;;;;;;18.83;62.12;96916.41;5059847;28;20063;-65
2021/09/05 05:45:28;;;;;;;7.18;4.60;;;;;;;19.14;60.14;96918.38;5049733;28;20509;-66
2021/09/05 05:47:53;;;;;;;8.73;4.70;;;;;;;19.75;58.98;96923.81;5046591;28;20047;-67
2021/09/05 05:50:18;;;;;;;8.68;4.78;;;;;;;19.38;59.78;96928.34;5036116;28;20128;-66
2021/09/05 05:52:44;;;;;;;8.95;4.53;;;;;;;20.19;57.14;96924.66;5036725;28;20044;-67
2021/09/05 05:55:10;;;;;;;8.20;4.75;;;;;;;20.61;55.14;96932.66;5023091;28;20098;-67
2021/09/05 05:57:36;;;;;;;9.45;4.55;;;;;;;21.00;54.10;96936.66;5047597;28;20041;-66
2021/09/05 06:00:04;;;;;;;10.75;5.93;;;;;;;21.19;54.75;96935.81;5055368;28;20056;-67
2021/09/05 06:02:30;;;;;;;7.15;4.43;;;;;;;21.69;53.10;96935.91;5048877;28;20048;-67
2021/09/05 06:04:55;;;;;;;8.25;4.97;;;;;;;20.96;53.99;96942.28;5047647;28;20397;-65
2021/09/05 06:07:20;;;;;;;9.73;4.63;;;;;;;21.64;52.96;96933.66;5035797;28;20623;-67
2021/09/05 06:09:46;;;;;;;9.02;4.28;;;;;;;22.15;49.65;96931.97;5040534;28;20047;-67
2021/09/05 06:12:11;;;;;;;8.90;5.25;;;;;;;22.66;49.92;96928.63;5030329;28;20029;-66
2021/09/05 06:14:37;;;;;;;6.47;4.20;;;;;;;23.71;48.25;96922.75;5028222;28;20048;-67
2021/09/05 06:17:03;;;;;;;7.40;4.72;;;;;;;24.38;46.12;96930.91;5054952;28;20033;-65
2021/09/05 06:19:30;;;;;;;6.13;3.85;;;;;;;24.56;45.06;96935.91;5059506;28;20048;-66
2021/09/05 06:21:55;;;;;;;7.32;4.07;;;;;;;24.74;44.79;96937.25;5048858;28;20049;-67
2021/09/05 06:24:20;;;;;;;6.70;4.40;;;;;;;24.72;44.53;96936.94;5036576;28;20037;-66
2021/09/05 06:26:46;;;;;;;8.25;4.28;;;;;;;24.67;44.89;96938.31;5041337;28;20496;-66
2021/09/05 06:29:12;;;;;;;7.10;4.25;;;;;;;23.67;47.20;96940.41;5046197;28;20577;-67
2021/09/05 06:31:37;;;;;;;6.60;4.50;;;;;;;24.74;45.78;96940.88;5048027;28;20131;-67
2021/09/05 06:34:03;;;;;;;8.20;4.45;;;;;;;25.47;43.34;96944.56;5055671;28;20036;-64
2021/09/05 06:36:28;;;;;;;6.53;4.20;;;;;;;25.92;42.77;96945.97;5056547;28;20565;-67
2021/09/05 06:38:54;;;;;;;7.82;4.38;;;;;;;25.36;43.02;96956.97;5056318;28;20401;-66
2021/09/05 06:41:19;;;;;;;7.80;4.40;;;;;;;25.94;42.29;96952.72;5044083;28;20144;-67
2021/09/05 06:43:45;;;;;;;7.45;4.05;;;;;;;26.01;42.69;96959.28;5060010;28;20044;-67
2021/09/05 06:46:10;;;;;;;7.25;4.55;;;;;;;26.18;42.16;96949.34;5045230;28;20493;-66
2021/09/05 06:48:36;;;;;;;6.18;4.25;;;;;;;26.50;41.97;96962.00;5054502;28;20050;-67
2021/09/05 06:51:01;;;;;;;7.50;4.28;;;;;;;26.86;40.92;96957.66;5054500;28;20091;-67
2021/09/05 06:53:27;;;;;;;6.38;4.47;;;;;;;26.88;40.98;96957.19;5035318;28;20139;-66
2021/09/05 06:55:52;;;;;;;5.60;4.10;;;;;;;25.91;42.49;96959.25;5028848;28;20355;-66
2021/09/05 06:58:18;;;;;;;7.18;4.40;;;;;;;22.00;51.63;96957.88;5041744;28;20071;-68
2021/09/05 07:00:43;;;;;;;8.05;4.90;;;;;;;21.29;55.68;96961.88;5039327;28;20047;-67
2021/09/05 07:03:08;;;;;;;9.43;4.97;;;;;;;19.96;58.89;96952.50;5036778;28;20045;-67
2021/09/05 07:05:34;;;;;;;7.68;4.90;;;;;;;18.81;64.75;96965.19;5039824;28;20049;-66
2021/09/05 07:07:59;;;;;;;9.95;5.93;;;;;;;18.42;67.37;96956.09;5039795;28;20045;-66
2021/09/05 07:10:25;;;;;;;7.97;5.15;;;;;;;18.51;67.24;96961.94;5032942;28;20136;-66
2021/09/05 07:12:50;;;;;;;9.25;6.00;;;;;;;18.37;68.52;96964.88;5040718;28;20047;-66
2021/09/05 07:15:16;;;;;;;9.32;4.97;;;;;;;19.73;64.88;96972.69;5053717;28;20119;-66
2021/09/05 07:17:42;;;;;;;7.75;5.25;;;;;;;21.46;58.51;96971.06;5058991;28;20040;-66
2021/09/05 07:20:08;;;;;;;8.05;5.07;;;;;;;21.65;57.26;96974.25;5032452;28;20048;-66
2021/09/05 07:22:34;;;;;;;8.65;5.10;;;;;;;21.75;58.16;96973.19;5044870;28;20033;-66
2021/09/05 07:25:02;;;;;;;7.72;5.10;;;;;;;21.75;56.86;96970.41;5038472;28;20497;-66
2021/09/05 07:27:27;;;;;;;7.80;5.35;;;;;;;20.90;59.21;96982.97;5039848;28;20049;-66
2021/09/05 07:29:53;;;;;;;9.25;5.50;;;;;;;20.28;61.58;96973.41;5052792;28;20051;-66
2021/09/05 07:32:19;;;;;;;7.68;5.65;;;;;;;20.58;61.85;96972.44;5032712;28;20120;-66
2021/09/05 07:34:45;;;;;;;9.32;5.75;;;;;;;19.95;63.96;96984.25;5062850;28;20037;-65
2021/09/05 07:37:11;;;;;;;7.97;5.53;;;;;;;20.59;62.04;96983.13;5056761;28;20040;-66
2021/09/05 07:39:37;;;;;;;9.07;5.70;;;;;;;20.20;64.94;96978.28;5063148;28;20051;-66
2021/09/05 07:42:03;;;;;;;10.60;6.47;;;;;;;20.57;63.27;96974.44;5057224;28;20068;-65
2021/09/05 07:44:29;;;;;;;10.20;6.13;;;;;;;20.05;65.34;96977.75;5025207;28;20041;-65
2021/09/05 07:46:54;;;;;;;8.55;5.22;;;;;;;21.29;61.82;96970.22;5055788;28;20064;-64
2021/09/05 07:49:19;;;;;;;8.88;5.60;;;;;;;21.69;60.77;96977.72;5038256;28;20041;-65
2021/09/05 07:51:45;;;;;;;9.43;6.80;;;;;;;20.07;65.22;96989.22;5028548;28;20127;-65
2021/09/05 07:54:10;;;;;;;12.30;6.28;;;;;;;20.59;64.69;96991.47;5037346;28;20045;-66
2021/09/05 07:56:36;;;;;;;9.27;6.20;;;;;;;22.61;59.30;96978.63;5050726;28;20098;-66
2021/09/05 07:59:01;;;;;;;10.15;6.43;;;;;;;22.22;58.64;96984.00;5050869;28;20123;-67
2021/09/05 08:01:27;;;;;;;12.35;7.38;;;;;;;20.58;65.77;96984.38;5048146;28;20111;-66
2021/09/05 08:03:53;;;;;;;10.77;6.88;;;;;;;20.65;64.70;96985.47;5048944;28;20037;-66
2021/09/05 08:06:19;;;;;;;10.18;7.25;;;;;;;20.54;65.56;96978.06;5029746;28;20573;-66
2021/09/05 08:08:44;;;;;;;9.50;6.07;;;;;;;21.62;63.41;96978.66;5047737;28;20041;-65
2021/09/05 08:11:10;;;;;;;11.77;6.72;;;;;;;23.51;55.47;96982.47;5047627;28;20437;-66
2021/09/05 08:13:35;;;;;;;12.48;6.05;;;;;;;25.20;50.52;96979.59;5042272;28;20064;-66
2021/09/05 08:16:01;;;;;;;11.07;6.78;;;;;;;22.72;56.63;96993.09;5048938;28;20057;-67
2021/09/05 08:18:30;;;;;;;9.40;5.72;;;;;;;25.72;50.05;96988.47;5056096;28;20258;-67
2021/09/05 08:20:57;;;;;;;10.30;6.72;;;;;;;22.59;57.40;96990.25;5061871;28;20043;-67
2021/09/05 08:23:22;;;;;;;11.50;7.57;;;;;;;21.20;62.30;97006.25;5043836;28;20829;-66
2021/09/05 08:25:48;;;;;;;11.52;7.55;;;;;;;22.26;60.36;96990.31;5046896;28;20048;-66
2021/09/05 08:28:13;;;;;;;11.48;6.68;;;;;;;23.27;57.33;97001.56;5033452;28;20037;-65
2021/09/05 08:30:39;;;;;;;7.30;5.32;;;;;;;25.59;50.30;96993.38;5038376;28;20083;-65
2021/09/05 08:33:04;;;;;;;8.73;5.22;;;;;;;27.17;46.21;96989.63;5042522;28;20033;-65
2021/09/05 08:35:30;;;;;;;8.82;5.95;;;;;;;23.04;56.36;96997.81;5040327;28;20049;-65
2021/09/05 08:37:55;;;;;;;10.43;6.68;;;;;;;23.17;55.33;96997.84;5049246;28;20036;-67
2021/09/05 08:40:23;;;;;;;10.55;6.82;;;;;;;22.62;57.93;97005.34;5039891;28;20101;-66
2021/09/05 08:42:51;;;;;;;9.65;5.50;;;;;;;23.31;56.49;97001.44;5060450;28;20036;-64
2021/09/05 08:45:16;;;;;;;8.80;6.22;;;;;;;22.14;58.93;97005.69;5049407;28;20487;-64
2021/09/05 08:47:42;;;;;;;8.90;6.50;;;;;;;21.92;61.17;96999.88;5052291;28;20123;-65
2021/09/05 08:50:08;;;;;;;10.88;6.63;;;;;;;21.34;61.28;96999.59;5056510;28;20067;-65
2021/09/05 08:52:34;;;;;;;12.68;6.50;;;;;;;23.19;56.74;97003.78;5049634;28;20044;-64
2021/09/05 08:55:00;;;;;;;9.95;5.65;;;;;;;25.60;49.02;96992.91;5044535;28;20052;-66
2021/09/05 08:57:25;;;;;;;9.95;5.32;;;;;;;25.29;49.11;96998.53;5047307;28;20052;-66
2021/09/05 08:59:50;;;;;;;8.93;5.78;;;;;;;22.97;55.33;97000.78;5040425;28;20041;-66
2021/09/05 09:02:16;;;;;;;8.88;6.55;;;;;;;22.48;55.96;97009.28;5043245;28;20501;-67
2021/09/05 09:04:43;;;;;;;6.55;5.03;;;;;;;24.96;50.30;96994.09;5035214;28;20044;-67
2021/09/05 09:07:14;;;;;;;10.27;5.50;;;;;;;23.64;52.41;96993.66;5038512;28;20040;-64
2021/09/05 09:09:55;;;;;;;8.23;4.97;;;;;;;23.24;51.73;96994.84;5041579;28;20033;-66
2021/09/05 09:12:36;;;;;;;9.10;5.55;;;;;;;22.15;55.98;97004.50;5036632;28;20041;-66
2021/09/05 09:15:02;;;;;;;6.97;4.88;;;;;;;22.26;55.68;97000.66;5025146;28;20136;-65
2021/09/05 09:17:37;;;;;;;9.65;5.22;;;;;;;22.12;56.02;96996.22;5047902;28;20541;-66
2021/09/05 09:20:04;;;;;;;7.13;4.70;;;;;;;22.33;56.19;96994.94;5054686;28;20148;-64
2021/09/05 09:22:29;;;;;;;9.02;4.57;;;;;;;23.33;53.93;96994.19;5060719;28;20037;-67
2021/09/05 09:24:55;;;;;;;7.20;4.97;;;;;;;23.12;52.91;97001.19;5059905;28;20033;-66
2021/09/05 09:27:20;;;;;;;9.05;4.65;;;;;;;22.68;54.65;96998.00;5041889;28;20132;-66
2021/09/05 09:29:46;;;;;;;8.05;4.50;;;;;;;23.81;52.90;96994.38;5029170;28;20486;-66
2021/09/05 09:32:21;;;;;;;8.50;4.90;;;;;;;24.33;49.58;96998.66;5035281;28;20041;-66
2021/09/05 09:34:48;;;;;;;6.50;4.60;;;;;;;24.18;49.61;97001.16;5043564;28;20043;-66
2021/09/05 09:37:16;;;;;;;6.47;4.40;;;;;;;25.60;47.09;97009.75;5046017;28;20068;-66
2021/09/05 09:39:43;;;;;;;8.70;5.85;;;;;;;27.44;45.08;97006.47;5057781;28;20399;-66
2021/09/05 09:42:08;;;;;;;7.70;4.75;;;;;;;28.02;43.77;96998.94;5051677;28;20072;-65
2021/09/05 09:44:34;;;;;;;7.00;4.57;;;;;;;25.86;44.89;97001.94;5042015;28;20124;-65
2021/09/05 09:47:09;;;;;;;8.15;4.78;;;;;;;25.36;47.40;97001.06;5036483;28;20056;-65
2021/09/05 09:49:53;;;;;;;5.88;4.13;;;;;;;26.25;45.65;97007.22;5050715;28;20044;-66
2021/09/05 09:52:18;;;;;;;8.25;3.88;;;;;;;26.59;45.35;96996.97;5054704;28;20432;-65
2021/09/05 09:54:45;;;;;;;7.20;4.38;;;;;;;27.56;43.77;96998.31;5060162;28;20071;-64
2021/09/05 09:57:11;;;;;;;10.02;4.78;;;;;;;28.47;41.61;96990.69;5052716;28;20044;-65
2021/09/05 09:59:37;;;;;;;10.82;4.93;;;;;;;28.15;42.98;96992.31;5050643;28;20454;-68
2021/09/05 10:02:05;;;;;;;8.13;4.00;;;;;;;28.75;41.49;96985.66;5044442;28;20040;-63
2021/09/05 10:04:31;;;;;;;6.93;4.57;;;;;;;28.28;41.99;96980.81;5052941;28;20052;-66
2021/09/05 10:06:57;;;;;;;6.95;4.30;;;;;;;28.21;42.81;96987.56;5055715;28;20154;-66
2021/09/05 10:09:24;;;;;;;6.15;4.15;;;;;;;29.12;39.92;96985.31;5056372;28;20044;-66
2021/09/05 10:11:51;;;;;;;6.47;3.85;;;;;;;29.10;40.47;96990.69;5056928;28;20036;-66
2021/09/05 10:14:20;;;;;;;6.32;4.47;;;;;;;28.19;42.78;96982.41;5048151;28;20041;-64
2021/09/05 10:16:46;;;;;;;;;;;;;;;28.56;42.27;96984.25;5045171;28;20041;-65
2021/09/05 10:19:12;;;;;;;6.28;4.65;;;;;;;27.88;44.10;96982.72;5045299;28;19923;-65
2021/09/05 10:21:38;;;;;;;7.63;4.32;;;;;;;28.16;43.32;96980.56;5060338;28;20044;-67
2021/09/05 10:24:14;;;;;;;7.05;4.68;;;;;;;28.44;42.50;96973.97;5052390;28;20040;-63
2021/09/05 10:26:58;;;;;;;8.93;5.00;;;;;;;28.28;43.58;96972.34;5045132;28;20146;-66
2021/09/05 10:29:23;;;;;;;10.35;4.85;;;;;;;27.74;44.60;96978.53;5044901;28;20351;-66
2021/09/05 10:31:49;;;;;;;12.10;4.82;;;;;;;28.16;43.38;96971.31;5060998;28;20147;-66
2021/09/05 10:34:33;;;;;;;7.82;4.00;;;;;;;28.45;42.83;96967.88;5054846;28;20037;-66
2021/09/05 10:37:11;;;;;;;9.73;5.25;;;;;;;27.81;43.92;96964.13;5056934;28;20052;-66
2021/09/05 10:40:06;;;;;;;9.38;4.85;;;;;;;27.95;44.97;96968.31;5057319;28;20036;-67
2021/09/05 10:42:32;;;;;;;8.60;5.20;;;;;;;27.85;44.22;96970.34;5056032;28;20052;-68
2021/09/05 10:45:06;;;;;;;8.23;5.32;;;;;;;27.44;45.47;96972.72;5058026;28;20095;-67
2021/09/05 10:47:39;;;;;;;8.48;5.40;;;;;;;27.05;45.96;96974.50;5048400;28;20080;-67
2021/09/05 10:50:26;;;;;;;7.03;4.60;;;;;;;27.34;45.94;96967.59;5037133;28;20084;-62
2021/09/05 10:52:52;;;;;;;6.70;4.45;;;;;;;27.47;44.14;96971.00;5048841;28;20565;-66
2021/09/05 10:55:19;;;;;;;7.65;4.20;;;;;;;27.48;45.38;96974.56;5049343;28;20139;-67
2021/09/05 10:57:44;;;;;;;10.00;5.45;;;;;;;27.59;45.76;96969.25;5059665;28;20068;-67
2021/09/05 11:00:10;;;;;;;7.85;4.85;;;;;;;27.46;46.08;96969.44;5048546;28;20068;-67
2021/09/05 11:03:10;;;;;;;6.40;4.40;;;;;;;27.09;46.10;96972.31;5047895;28;20040;-67
2021/09/05 11:05:35;;;;;;;6.93;4.40;;;;;;;26.67;47.45;96970.16;5058388;28;20048;-67
2021/09/05 11:08:24;;;;;;;9.90;4.20;;;;;;;26.64;47.89;96969.06;5059638;28;20044;-69
2021/09/05 11:10:51;;;;;;;7.88;4.72;;;;;;;27.13;46.94;96964.47;5050631;28;20513;-66
2021/09/05 11:13:45;;;;;;;11.60;4.93;;;;;;;26.88;45.73;96969.22;5030486;28;20048;-66
2021/09/05 11:16:15;;;;;;;7.75;5.40;;;;;;;26.51;47.02;96969.19;5042231;28;20064;-66
2021/09/05 11:18:42;;;;;;;8.73;4.70;;;;;;;26.40;47.65;96968.88;5046615;28;20047;-66
2021/09/05 11:21:21;;;;;;;7.75;4.30;;;;;;;26.57;47.02;96974.19;5031937;28;20033;-65
2021/09/05 11:23:48;;;;;;;6.65;4.32;;;;;;;26.56;47.00;96970.59;5042941;28;20036;-68
2021/09/05 11:26:14;;;;;;;7.07;3.95;;;;;;;26.80;46.77;96961.56;5035475;28;20036;-64